Time;durP1;ratioP1;P1;durP2;ratioP2;P2;SDS_P1;SDS_P2;PMS_P1;PMS_P2;Temp;Humidity;BMP_temperature;BMP_pressure;BME280_temperature;BME280_humidity;BME280_pressure;Samples;Min_cycle;Max_cycle;Signal;HPM_P1;HPM_P2
2022/01/14 00:00:57;;;;;;;16.20;9.20;;;;;;;2.56;82.86;97586.27;107777;1269;32102;-73
2022/01/14 00:03:28;;;;;;;13.40;7.50;;;;;;;2.60;82.68;97587.19;107726;1271;42113;-73
2022/01/14 00:06:01;;;;;;;19.80;9.30;;;;;;;2.59;82.63;97584.90;107629;1269;40258;-73
2022/01/14 00:08:32;;;;;;;15.70;6.80;;;;;;;2.59;82.53;97582.20;107614;1270;31932;-73
2022/01/14 00:11:03;;;;;;;19.20;10.10;;;;;;;2.58;82.56;97597.27;107703;1270;38585;-73
2022/01/14 00:13:46;;;;;;;14.90;10.30;;;;;;;2.60;82.70;97586.87;107737;1270;37128;-73
2022/01/14 00:16:18;;;;;;;12.10;6.50;;;;;;;2.63;82.38;97594.48;107694;1270;35783;-73
2022/01/14 00:18:49;;;;;;;13.80;8.00;;;;;;;2.63;82.38;97598.34;107697;1270;39661;-73
2022/01/14 00:21:19;;;;;;;16.40;8.40;;;;;;;2.64;82.25;97601.11;107817;1269;28373;-73
2022/01/14 00:23:53;;;;;;;9.50;5.30;;;;;;;2.62;82.18;97602.61;107776;1270;42976;-73
2022/01/14 00:32:22;;;;;;;12.20;6.90;;;;;;;2.52;82.29;97609.58;107740;1268;31323;-73
2022/01/14 00:34:53;;;;;;;10.50;4.90;;;;;;;2.49;82.33;97599.60;107774;1268;34637;-73
2022/01/14 00:37:24;;;;;;;11.20;5.60;;;;;;;2.50;82.40;97608.66;107769;1270;30682;-73
2022/01/14 00:39:54;;;;;;;16.90;7.50;;;;;;;2.49;82.34;97605.03;107708;1270;33875;-75
2022/01/14 00:42:25;;;;;;;10.80;6.00;;;;;;;2.47;82.30;97607.58;107695;1271;43459;-74
2022/01/14 00:44:56;;;;;;;16.60;6.70;;;;;;;2.43;82.37;97616.16;107737;1270;31957;-74
2022/01/14 00:47:28;;;;;;;9.80;5.40;;;;;;;2.45;82.48;97622.76;107648;1270;42497;-74
2022/01/14 00:49:58;;;;;;;11.60;6.00;;;;;;;2.44;82.48;97630.93;107730;1270;31721;-74
2022/01/14 00:52:29;;;;;;;12.10;5.70;;;;;;;2.44;82.43;97638.86;107718;1270;40640;-73
2022/01/14 00:55:00;;;;;;;10.90;5.60;;;;;;;2.44;82.52;97633.30;107652;1270;40258;-73
2022/01/14 01:00:17;;;;;;;12.10;6.90;;;;;;;2.45;82.51;97637.02;107669;1270;38165;-74
2022/01/14 01:02:48;;;;;;;14.40;6.50;;;;;;;2.45;82.32;97634.80;107705;1270;36446;-73
2022/01/14 01:05:20;;;;;;;14.10;7.60;;;;;;;2.43;82.29;97631.73;107697;1270;34083;-73
2022/01/14 01:08:01;;;;;;;13.60;6.30;;;;;;;2.41;82.24;97629.69;107769;1268;34283;-74
2022/01/14 01:10:33;;;;;;;13.30;5.60;;;;;;;2.39;82.35;97628.55;107753;1268;29893;-73
2022/01/14 01:13:10;;;;;;;11.90;6.20;;;;;;;2.41;82.27;97636.89;107734;1268;34716;-74
2022/01/14 01:15:41;;;;;;;13.70;6.70;;;;;;;2.44;82.48;97641.52;107716;1268;32050;-74
2022/01/14 01:18:12;;;;;;;13.30;7.10;;;;;;;2.43;82.28;97646.23;107707;1270;29804;-74
2022/01/14 01:20:43;;;;;;;12.20;5.70;;;;;;;2.41;82.38;97643.26;107717;1270;36693;-73
2022/01/14 01:23:14;;;;;;;12.30;6.90;;;;;;;2.43;82.39;97657.83;107744;1268;35750;-73
2022/01/14 01:25:49;;;;;;;11.20;5.50;;;;;;;2.46;82.22;97650.77;107703;1269;41166;-73
2022/01/14 01:28:19;;;;;;;9.70;4.90;;;;;;;2.51;82.01;97647.11;107770;1268;39298;-73
2022/01/14 01:31:03;;;;;;;14.00;6.90;;;;;;;2.52;81.82;97623.88;107773;1268;36195;-73
2022/01/14 01:33:35;;;;;;;13.10;6.80;;;;;;;2.51;81.83;97608.77;107723;1268;35337;-74
2022/01/14 01:36:06;;;;;;;10.60;6.70;;;;;;;2.49;81.81;97591.46;107691;1269;43326;-73
2022/01/14 01:38:37;;;;;;;12.80;5.90;;;;;;;2.43;81.79;97599.90;107747;1268;35724;-74
2022/01/14 01:41:11;;;;;;;16.50;7.70;;;;;;;2.39;81.83;97586.08;107729;1268;41386;-73
2022/01/14 01:43:45;;;;;;;14.90;6.00;;;;;;;2.35;81.87;97563.01;107640;1270;31697;-74
2022/01/14 01:46:15;;;;;;;13.00;6.40;;;;;;;2.32;82.02;97567.33;107680;1271;30717;-74
2022/01/14 01:48:46;;;;;;;13.10;6.50;;;;;;;2.30;82.06;97565.35;107707;1271;34371;-73
2022/01/14 01:51:18;;;;;;;7.90;5.30;;;;;;;2.27;82.05;97573.00;107699;1271;39580;-73
2022/01/14 01:53:50;;;;;;;11.70;7.10;;;;;;;2.25;82.06;97581.98;107737;1268;34434;-73
2022/01/14 01:56:20;;;;;;;16.30;7.90;;;;;;;2.24;82.03;97585.95;107785;1268;47464;-73
2022/01/14 01:58:51;;;;;;;8.90;6.20;;;;;;;2.23;82.04;97584.73;107779;1271;43415;-74
2022/01/14 02:01:23;;;;;;;13.20;7.20;;;;;;;2.21;82.14;97579.11;107782;1268;31224;-73
2022/01/14 02:03:55;;;;;;;15.70;9.30;;;;;;;2.20;82.20;97578.75;107814;1270;29684;-73
2022/01/14 02:06:27;;;;;;;10.50;6.70;;;;;;;2.17;82.01;97593.67;107655;1269;32999;-74
2022/01/14 02:08:57;;;;;;;10.50;6.30;;;;;;;2.15;82.00;97593.16;107716;1268;32533;-74
2022/01/14 02:11:28;;;;;;;14.70;7.80;;;;;;;2.14;81.96;97585.68;107763;1271;31259;-73
2022/01/14 02:14:01;;;;;;;11.70;6.40;;;;;;;2.17;82.06;97586.41;107728;1268;34525;-74
2022/01/14 02:16:35;;;;;;;13.30;6.90;;;;;;;2.14;81.89;97578.27;107699;1269;37149;-73
2022/01/14 02:19:16;;;;;;;11.90;7.00;;;;;;;2.14;82.07;97580.17;107717;1271;42519;-74
2022/01/14 02:22:11;;;;;;;17.10;7.90;;;;;;;2.13;82.12;97584.39;107709;1268;32344;-73
2022/01/14 02:25:06;;;;;;;15.30;8.30;;;;;;;2.09;82.02;97589.23;107722;1268;31893;-73
2022/01/14 02:27:38;;;;;;;15.30;8.50;;;;;;;2.10;82.03;97588.84;107657;1270;45641;-73
2022/01/14 02:30:13;;;;;;;14.30;6.00;;;;;;;2.07;82.22;97577.29;107695;1268;39668;-74
2022/01/14 02:32:44;;;;;;;13.70;7.60;;;;;;;2.04;82.19;97572.30;107606;1271;37541;-74
2022/01/14 02:35:15;;;;;;;12.70;8.10;;;;;;;1.99;82.23;97566.07;107695;1271;35276;-74
2022/01/14 02:37:46;;;;;;;15.40;8.70;;;;;;;1.95;82.48;97560.70;107720;1271;31551;-74
2022/01/14 02:40:18;;;;;;;14.80;8.40;;;;;;;1.91;82.72;97545.73;107739;1268;37605;-73
2022/01/14 02:42:49;;;;;;;18.90;11.40;;;;;;;1.90;82.65;97544.53;107735;1269;42623;-74
2022/01/14 02:45:22;;;;;;;17.30;9.00;;;;;;;1.88;82.94;97530.49;107733;1268;31882;-72
2022/01/14 02:47:53;;;;;;;15.10;9.30;;;;;;;1.84;82.96;97533.99;107927;1268;39617;-74
2022/01/14 02:50:25;;;;;;;23.40;12.40;;;;;;;1.75;83.13;97499.12;107777;1268;35277;-74
2022/01/14 02:53:01;;;;;;;17.20;9.40;;;;;;;1.75;83.27;97497.74;107744;1270;32707;-73
2022/01/14 02:55:32;;;;;;;17.60;10.50;;;;;;;1.73;83.59;97500.64;107748;1268;33675;-74
2022/01/14 02:58:03;;;;;;;11.60;6.60;;;;;;;1.74;83.50;97513.64;107698;1268;39218;-74
2022/01/14 03:00:34;;;;;;;16.40;9.90;;;;;;;1.69;83.60;97519.45;107682;1268;45720;-73
2022/01/14 03:03:07;;;;;;;22.50;11.70;;;;;;;1.67;83.70;97512.08;107668;1270;31440;-74
2022/01/14 03:05:38;;;;;;;17.90;10.20;;;;;;;1.67;83.77;97511.52;107681;1271;32782;-73
2022/01/14 03:08:09;;;;;;;14.90;8.00;;;;;;;1.69;83.91;97503.58;107662;1270;39962;-73
2022/01/14 03:10:42;;;;;;;17.40;9.30;;;;;;;1.66;83.70;97489.84;107687;1269;33371;-73
2022/01/14 03:13:12;;;;;;;17.60;10.30;;;;;;;1.66;83.93;97494.75;107827;1268;38594;-73
2022/01/14 03:15:43;;;;;;;18.80;10.20;;;;;;;1.64;84.05;97478.98;107748;1268;40557;-73
2022/01/14 03:18:21;;;;;;;19.00;10.50;;;;;;;1.64;83.81;97490.45;107685;1268;44887;-74
2022/01/14 03:21:02;;;;;;;18.10;11.60;;;;;;;1.64;83.74;97467.66;107787;1271;29043;-73
2022/01/14 03:23:41;;;;;;;13.70;6.20;;;;;;;1.65;83.73;97474.05;107738;1271;31608;-73
2022/01/14 03:26:13;;;;;;;13.50;7.40;;;;;;;1.63;83.75;97484.06;107708;1271;31976;-73
2022/01/14 03:28:44;;;;;;;19.30;10.70;;;;;;;1.59;83.95;97476.71;107679;1270;37961;-73
2022/01/14 03:31:15;;;;;;;16.10;10.40;;;;;;;1.57;83.94;97477.30;107694;1270;31787;-73
2022/01/14 03:33:46;;;;;;;14.20;8.70;;;;;;;1.54;84.32;97502.86;107783;1271;27534;-73
2022/01/14 03:36:17;;;;;;;17.30;9.60;;;;;;;1.47;84.35;97498.75;107757;1269;35308;-73
2022/01/14 03:38:48;;;;;;;16.80;9.60;;;;;;;1.46;84.73;97499.60;107628;1269;36547;-73
2022/01/14 03:41:19;;;;;;;18.10;10.10;;;;;;;1.47;84.54;97494.14;107602;1271;46489;-73
2022/01/14 03:43:49;;;;;;;13.00;7.20;;;;;;;1.48;84.75;97485.33;107727;1270;41048;-73
2022/01/14 03:46:20;;;;;;;16.90;9.70;;;;;;;1.46;84.52;97482.08;107707;1268;36480;-73
2022/01/14 03:48:52;;;;;;;15.80;9.70;;;;;;;1.45;84.54;97480.42;107734;1271;41565;-73
2022/01/14 03:51:24;;;;;;;14.60;9.10;;;;;;;1.41;84.68;97479.58;107843;1269;28763;-73
2022/01/14 03:53:55;;;;;;;13.30;7.60;;;;;;;1.35;84.64;97493.42;107845;1269;33338;-73
2022/01/14 03:56:26;;;;;;;10.90;6.40;;;;;;;1.30;84.66;97486.71;107699;1268;48393;-74
2022/01/14 03:58:57;;;;;;;16.10;8.10;;;;;;;1.30;84.82;97494.30;107634;1271;38416;-74
2022/01/14 04:01:28;;;;;;;11.70;7.10;;;;;;;1.28;84.60;97497.27;107706;1268;36013;-73
2022/01/14 04:03:59;;;;;;;15.70;8.10;;;;;;;1.27;84.76;97498.33;107741;1267;40328;-73
2022/01/14 04:06:30;;;;;;;14.80;9.30;;;;;;;1.28;84.91;97499.25;107696;1268;35490;-73
2022/01/14 04:09:01;;;;;;;15.90;7.90;;;;;;;1.29;84.90;97500.17;107701;1268;31023;-73
2022/01/14 04:11:33;;;;;;;13.40;7.90;;;;;;;1.31;84.94;97491.69;107744;1268;33818;-74
2022/01/14 04:15:36;;;;;;;12.90;6.80;;;;;;;1.31;84.69;97488.15;107749;1268;35775;-73
2022/01/14 04:16:59;;;;;;;13.60;7.90;;;;;;;1.35;84.63;97476.58;107671;1268;38643;-73
2022/01/14 04:19:31;;;;;;;17.90;9.10;;;;;;;1.37;84.61;97467.94;107742;1268;38141;-74
2022/01/14 04:22:02;;;;;;;16.00;8.80;;;;;;;1.39;84.31;97476.46;107706;1272;42436;-73
2022/01/14 04:24:35;;;;;;;11.50;6.20;;;;;;;1.39;84.27;97481.04;107740;1268;34007;-74
2022/01/14 04:27:06;;;;;;;12.70;7.00;;;;;;;1.38;84.11;97477.19;107732;1269;34121;-73
2022/01/14 04:29:37;;;;;;;12.30;6.70;;;;;;;1.36;84.59;97466.54;107681;1271;37548;-73
2022/01/14 04:32:09;;;;;;;10.40;6.00;;;;;;;1.34;84.08;97462.91;107766;1268;35706;-73
2022/01/14 04:34:40;;;;;;;10.40;6.40;;;;;;;1.34;84.13;97469.18;107685;1268;37889;-73
2022/01/14 04:37:11;;;;;;;14.00;7.40;;;;;;;1.30;84.33;97464.13;107623;1271;39878;-74
2022/01/14 04:39:41;;;;;;;12.30;7.60;;;;;;;1.29;84.47;97449.66;107650;1271;41955;-73
2022/01/14 04:42:12;;;;;;;12.00;6.20;;;;;;;1.29;84.79;97453.48;107650;1268;39151;-73
2022/01/14 04:44:43;;;;;;;12.50;6.70;;;;;;;1.25;84.64;97448.19;107762;1268;34996;-73
2022/01/14 04:47:17;;;;;;;15.80;9.10;;;;;;;1.23;84.88;97447.75;107731;1268;42305;-73
2022/01/14 04:49:51;;;;;;;15.60;7.80;;;;;;;1.25;84.86;97451.60;107687;1268;30023;-73
2022/01/14 04:52:22;;;;;;;12.80;7.00;;;;;;;1.24;84.86;97447.30;107693;1271;40388;-73
2022/01/14 04:54:53;;;;;;;12.00;5.90;;;;;;;1.23;84.94;97451.64;107688;1271;36451;-73
2022/01/14 04:57:24;;;;;;;12.30;7.50;;;;;;;1.22;85.11;97451.64;107775;1271;29898;-73
2022/01/14 04:59:55;;;;;;;14.40;9.00;;;;;;;1.20;85.20;97447.77;107747;1268;35919;-73
2022/01/14 05:02:26;;;;;;;17.00;10.30;;;;;;;1.21;85.36;97451.48;107666;1268;43106;-75
2022/01/14 05:04:59;;;;;;;12.40;6.90;;;;;;;1.23;85.39;97440.02;107685;1268;41363;-74
2022/01/14 05:07:30;;;;;;;17.10;11.40;;;;;;;1.22;85.35;97447.46;107691;1268;42691;-74
2022/01/14 05:10:18;;;;;;;16.90;8.60;;;;;;;1.22;85.41;97445.56;107655;1271;36708;-73
2022/01/14 05:12:48;;;;;;;13.70;6.70;;;;;;;1.21;85.51;97436.08;107615;1271;34322;-74
2022/01/14 05:15:21;;;;;;;15.10;9.20;;;;;;;1.20;85.53;97431.30;107679;1268;38202;-73
2022/01/14 05:17:52;;;;;;;12.50;7.40;;;;;;;1.17;85.48;97432.15;107780;1268;33081;-73
2022/01/14 05:20:23;;;;;;;14.50;7.80;;;;;;;1.14;85.46;97428.90;107697;1268;41798;-73
2022/01/14 05:22:54;;;;;;;12.30;7.10;;;;;;;1.12;85.39;97435.42;107768;1268;32605;-74
2022/01/14 05:25:25;;;;;;;16.40;8.60;;;;;;;1.10;85.56;97432.05;107702;1268;40618;-73
2022/01/14 05:27:56;;;;;;;19.30;10.40;;;;;;;1.08;85.38;97419.19;107587;1271;37119;-73
2022/01/14 05:30:27;;;;;;;18.10;10.30;;;;;;;1.10;85.41;97428.06;107645;1271;30222;-73
2022/01/14 05:32:58;;;;;;;14.80;10.40;;;;;;;1.08;85.47;97428.63;107625;1268;42567;-74
2022/01/14 05:35:30;;;;;;;15.30;9.20;;;;;;;1.06;85.58;97426.98;107715;1268;39425;-73
2022/01/14 05:38:01;;;;;;;9.50;6.20;;;;;;;1.04;85.32;97424.97;107647;1269;38041;-73
2022/01/14 05:40:32;;;;;;;13.10;8.20;;;;;;;1.00;85.46;97430.02;107570;1271;38078;-73
2022/01/14 05:43:03;;;;;;;22.10;9.60;;;;;;;0.97;85.41;97422.08;107610;1270;31045;-73
2022/01/14 05:45:35;;;;;;;15.50;7.40;;;;;;;0.97;85.78;97415.42;107660;1271;44600;-73
2022/01/14 05:48:06;;;;;;;12.60;7.60;;;;;;;0.95;85.70;97411.09;107598;1269;39221;-73
2022/01/14 05:50:37;;;;;;;17.10;9.00;;;;;;;0.92;85.61;97391.56;107685;1268;37552;-73
2022/01/14 05:53:10;;;;;;;18.70;11.10;;;;;;;0.91;85.78;97390.48;107668;1268;39306;-73
2022/01/14 05:55:41;;;;;;;17.40;9.40;;;;;;;0.90;86.04;97380.69;107709;1268;37078;-73
2022/01/14 05:58:12;;;;;;;14.30;9.40;;;;;;;0.88;85.93;97378.31;107711;1268;38024;-73
2022/01/14 06:00:43;;;;;;;18.70;10.60;;;;;;;0.87;86.04;97368.98;107734;1268;31704;-73
2022/01/14 06:03:14;;;;;;;14.20;7.70;;;;;;;0.87;85.95;97364.02;107725;1268;35094;-73
2022/01/14 06:05:45;;;;;;;16.80;10.00;;;;;;;0.87;86.02;97373.37;107709;1268;34354;-73
2022/01/14 06:08:16;;;;;;;15.60;10.20;;;;;;;0.88;85.99;97374.54;107702;1268;33879;-73
2022/01/14 06:10:47;;;;;;;12.10;8.00;;;;;;;0.88;86.02;97367.55;107697;1268;40573;-73
2022/01/14 06:13:18;;;;;;;14.90;9.10;;;;;;;0.87;85.98;97354.45;107710;1268;42331;-74
2022/01/14 06:15:49;;;;;;;11.20;7.50;;;;;;;0.86;86.02;97344.30;107721;1268;40177;-73
2022/01/14 06:18:20;;;;;;;16.30;9.90;;;;;;;0.87;85.62;97362.45;107686;1268;44979;-73
2022/01/14 06:20:50;;;;;;;18.60;11.00;;;;;;;0.84;85.97;97357.58;107770;1268;30867;-73
2022/01/14 06:23:24;;;;;;;17.20;8.30;;;;;;;0.84;85.88;97362.64;107739;1269;35346;-73
2022/01/14 06:25:55;;;;;;;19.10;10.10;;;;;;;0.85;85.97;97350.02;107758;1268;35005;-73
2022/01/14 06:28:26;;;;;;;19.60;12.40;;;;;;;0.86;85.77;97334.42;107709;1268;34376;-74
2022/01/14 06:30:57;;;;;;;17.60;8.60;;;;;;;0.87;85.91;97328.35;107664;1271;33728;-74
2022/01/14 06:33:28;;;;;;;22.60;15.00;;;;;;;0.88;85.70;97320.84;107678;1268;43493;-74
2022/01/14 06:35:59;;;;;;;14.30;8.40;;;;;;;0.88;85.52;97317.71;107669;1268;42631;-74
2022/01/14 06:38:31;;;;;;;17.40;12.20;;;;;;;0.88;85.59;97308.84;107710;1268;34944;-73
2022/01/14 06:41:02;;;;;;;15.80;8.90;;;;;;;0.87;85.43;97283.30;107647;1269;32856;-73
2022/01/14 06:43:33;;;;;;;19.80;12.00;;;;;;;0.87;85.48;97277.12;107696;1268;38484;-73
2022/01/14 06:46:04;;;;;;;15.70;8.90;;;;;;;0.86;85.60;97280.81;107573;1270;41908;-73
2022/01/14 06:48:35;;;;;;;16.50;9.10;;;;;;;0.87;85.57;97269.57;107723;1268;38511;-73
2022/01/14 06:51:12;;;;;;;15.00;8.20;;;;;;;0.89;85.56;97296.23;107692;1268;34835;-74
2022/01/14 06:53:43;;;;;;;11.50;7.00;;;;;;;0.90;85.47;97296.43;107756;1268;36856;-73
2022/01/14 06:56:14;;;;;;;18.60;9.20;;;;;;;0.91;85.34;97303.65;107762;1268;34601;-73
2022/01/14 06:58:46;;;;;;;20.60;11.90;;;;;;;0.95;85.41;97307.79;107718;1268;33764;-73
2022/01/14 07:01:19;;;;;;;18.10;11.40;;;;;;;1.00;85.30;97320.17;107729;1268;30208;-74
2022/01/14 07:03:50;;;;;;;23.10;12.20;;;;;;;1.03;84.92;97345.04;107689;1270;33759;-73
2022/01/14 07:06:21;;;;;;;14.80;7.90;;;;;;;1.03;85.11;97343.84;107631;1270;31539;-73
2022/01/14 07:08:52;;;;;;;13.50;8.10;;;;;;;1.02;84.80;97360.02;107693;1271;32729;-73
2022/01/14 07:11:29;;;;;;;16.80;9.40;;;;;;;1.01;84.88;97364.32;107715;1268;35101;-73
2022/01/14 07:14:00;;;;;;;17.60;10.50;;;;;;;1.01;85.06;97363.84;107630;1268;40139;-74
2022/01/14 07:16:32;;;;;;;16.50;12.30;;;;;;;1.01;85.10;97351.91;107732;1268;34968;-73
2022/01/14 07:19:04;;;;;;;16.10;9.20;;;;;;;1.03;84.98;97357.09;107655;1268;33725;-73
2022/01/14 07:21:35;;;;;;;21.90;11.40;;;;;;;1.03;85.20;97363.84;107552;1270;42927;-73
2022/01/14 07:24:07;;;;;;;17.50;8.90;;;;;;;1.04;85.01;97363.39;107706;1267;36896;-73
2022/01/14 07:26:38;;;;;;;16.00;7.80;;;;;;;1.05;85.38;97367.77;107642;1268;41888;-73
2022/01/14 07:29:09;;;;;;;13.10;7.70;;;;;;;1.05;85.14;97359.26;107383;1268;395391;-73
2022/01/14 07:31:40;;;;;;;16.70;10.00;;;;;;;1.06;85.07;97366.00;107630;1271;40208;-73
2022/01/14 07:34:12;;;;;;;22.80;11.50;;;;;;;1.09;85.20;97359.82;107716;1268;34087;-73
2022/01/14 07:36:42;;;;;;;20.50;11.70;;;;;;;1.10;85.15;97368.45;107720;1268;33771;-73
2022/01/14 07:39:13;;;;;;;21.20;11.60;;;;;;;1.11;85.13;97380.34;107685;1268;33106;-73
2022/01/14 07:41:44;;;;;;;14.00;8.30;;;;;;;1.13;85.33;97384.17;107710;1268;38975;-73
2022/01/14 07:44:15;;;;;;;17.80;9.90;;;;;;;1.13;85.30;97383.54;107664;1270;33421;-73
2022/01/14 07:46:47;;;;;;;16.00;8.80;;;;;;;1.14;85.30;97377.64;107629;1270;42567;-73
2022/01/14 07:49:18;;;;;;;14.60;8.40;;;;;;;1.14;85.26;97371.41;107699;1269;34615;-74
2022/01/14 07:51:49;;;;;;;18.70;11.90;;;;;;;1.13;85.39;97394.22;107663;1271;36705;-73
2022/01/14 07:54:20;;;;;;;20.20;12.30;;;;;;;1.12;85.34;97381.92;107643;1271;41963;-73
2022/01/14 07:56:53;;;;;;;22.70;13.20;;;;;;;1.12;85.38;97391.36;107738;1268;35055;-73
2022/01/14 07:59:26;;;;;;;16.50;10.20;;;;;;;1.12;85.53;97393.96;107796;1269;33815;-73
2022/01/14 08:01:59;;;;;;;26.00;14.30;;;;;;;1.13;85.87;97393.20;107686;1269;35718;-73
2022/01/14 08:04:33;;;;;;;23.60;12.90;;;;;;;1.12;85.98;97384.04;107619;1268;59023;-73
2022/01/14 08:07:09;;;;;;;22.30;12.20;;;;;;;1.13;85.67;97389.36;107615;1268;34864;-73
2022/01/14 08:09:42;;;;;;;19.90;11.40;;;;;;;1.12;85.97;97400.15;107753;1268;30725;-73
2022/01/14 08:12:14;;;;;;;14.80;9.70;;;;;;;1.11;86.00;97401.48;107741;1268;33857;-73
2022/01/14 08:14:45;;;;;;;18.50;10.80;;;;;;;1.10;86.09;97396.89;107712;1268;32047;-73
2022/01/14 08:17:19;;;;;;;18.40;9.00;;;;;;;1.10;85.97;97405.16;107656;1268;35550;-74
2022/01/14 08:19:50;;;;;;;23.50;13.50;;;;;;;1.09;86.14;97407.55;107606;1270;32579;-73
2022/01/14 08:22:21;;;;;;;26.20;14.20;;;;;;;1.06;86.40;97404.33;107793;1265;36796;-73
2022/01/14 08:24:51;;;;;;;18.80;11.80;;;;;;;1.03;86.42;97395.38;107703;1268;34844;-73
2022/01/14 08:27:26;;;;;;;20.80;11.50;;;;;;;1.01;86.87;97397.42;107660;1270;34196;-73
2022/01/14 08:29:57;;;;;;;18.60;10.50;;;;;;;1.00;86.99;97372.39;107600;1270;39185;-74
2022/01/14 08:32:28;;;;;;;15.70;9.50;;;;;;;1.01;87.14;97380.99;107603;1270;36848;-73
2022/01/14 08:34:59;;;;;;;18.30;9.80;;;;;;;1.04;87.12;97378.86;107548;1270;43328;-73
2022/01/14 08:37:30;;;;;;;16.70;11.00;;;;;;;1.06;87.14;97370.94;107578;1270;36973;-73
2022/01/14 08:40:01;;;;;;;19.90;10.20;;;;;;;1.07;87.05;97372.71;107687;1271;30066;-73
2022/01/14 08:42:32;;;;;;;19.20;10.50;;;;;;;1.08;87.04;97373.23;107696;1268;37040;-73
2022/01/14 08:45:04;;;;;;;21.20;12.40;;;;;;;1.08;87.16;97365.65;107755;1268;36889;-73
2022/01/14 08:47:35;;;;;;;19.80;11.60;;;;;;;1.07;87.16;97373.77;107733;1268;33943;-73
2022/01/14 08:50:07;;;;;;;21.30;10.00;;;;;;;1.07;87.18;97368.77;107675;1270;32618;-73
2022/01/14 08:52:38;;;;;;;17.00;8.60;;;;;;;1.08;87.27;97385.33;107652;1268;38140;-73
2022/01/14 08:55:10;;;;;;;18.70;10.00;;;;;;;1.10;87.19;97378.85;107714;1268;33674;-74
2022/01/14 08:57:41;;;;;;;18.20;10.90;;;;;;;1.11;87.24;97375.52;107632;1270;30841;-73
2022/01/14 09:00:17;;;;;;;18.90;9.00;;;;;;;1.13;87.20;97379.44;107556;1270;32351;-73
2022/01/14 09:02:48;;;;;;;20.40;10.50;;;;;;;1.15;87.28;97378.00;107696;1268;31875;-73
2022/01/14 09:05:19;;;;;;;18.30;11.20;;;;;;;1.17;87.17;97371.52;107687;1271;36613;-74
2022/01/14 09:07:52;;;;;;;21.30;11.40;;;;;;;1.25;87.11;97369.70;107531;1269;32795;-73
2022/01/14 09:10:23;;;;;;;17.00;11.60;;;;;;;1.28;87.12;97345.10;107742;1268;33991;-73
2022/01/14 09:12:54;;;;;;;20.40;11.90;;;;;;;1.39;87.03;97316.16;107762;1270;32793;-73
2022/01/14 09:15:25;;;;;;;17.80;10.70;;;;;;;1.53;86.55;97294.38;107766;1268;31284;-73
2022/01/14 09:17:56;;;;;;;20.00;12.90;;;;;;;1.69;86.19;97289.81;107723;1268;34201;-74
2022/01/14 09:20:28;;;;;;;19.40;10.80;;;;;;;1.72;85.52;97300.19;107701;1268;37813;-74
2022/01/14 09:22:59;;;;;;;19.40;11.40;;;;;;;1.83;85.34;97297.58;107721;1268;33117;-73
2022/01/14 09:25:33;;;;;;;18.30;11.60;;;;;;;1.81;84.88;97309.32;107668;1270;47541;-73
2022/01/14 09:28:04;;;;;;;20.50;12.70;;;;;;;1.96;84.94;97305.91;107516;1270;38173;-73
2022/01/14 09:30:35;;;;;;;16.50;9.60;;;;;;;2.22;84.67;97316.27;107677;1268;41425;-73
2022/01/14 09:33:06;;;;;;;14.00;9.50;;;;;;;2.35;84.03;97317.18;107736;1268;33256;-73
2022/01/14 09:35:38;;;;;;;15.70;8.70;;;;;;;2.48;83.55;97329.00;107693;1271;39442;-73
2022/01/14 09:38:09;;;;;;;20.00;11.60;;;;;;;2.47;83.03;97328.08;107708;1268;40428;-73
2022/01/14 09:40:44;;;;;;;18.30;9.80;;;;;;;2.45;82.90;97318.27;107726;1268;38628;-73
2022/01/14 09:43:16;;;;;;;19.10;13.30;;;;;;;2.43;82.66;97338.45;107811;1268;33626;-73
2022/01/14 09:45:50;;;;;;;19.00;12.30;;;;;;;2.31;82.32;97318.93;107667;1268;43001;-73
2022/01/14 09:48:24;;;;;;;21.60;12.30;;;;;;;2.17;82.63;97302.33;107741;1268;32286;-73
2022/01/14 09:50:55;;;;;;;16.90;10.20;;;;;;;2.20;82.93;97306.27;107811;1268;32206;-73
2022/01/14 09:53:28;;;;;;;17.20;10.50;;;;;;;2.40;83.22;97300.77;107820;1268;43191;-73
2022/01/14 09:55:59;;;;;;;21.50;10.30;;;;;;;2.67;83.11;97298.45;107742;1268;29787;-73
2022/01/14 09:58:35;;;;;;;16.10;10.40;;;;;;;2.84;82.73;97299.23;107681;1271;37300;-73
2022/01/14 10:01:13;;;;;;;20.00;11.90;;;;;;;2.88;82.13;97289.61;107641;1270;39594;-73
2022/01/14 10:03:57;;;;;;;17.40;9.20;;;;;;;2.71;81.33;97277.00;107782;1268;32793;-73
2022/01/14 10:06:45;;;;;;;17.40;11.80;;;;;;;2.69;81.49;97292.20;107636;1270;34596;-73
2022/01/14 10:09:20;;;;;;;15.80;9.20;;;;;;;2.61;81.48;97288.59;107648;1270;38292;-73
2022/01/14 10:12:05;;;;;;;18.40;12.10;;;;;;;2.58;81.75;97276.58;107765;1268;32896;-73
2022/01/14 10:14:39;;;;;;;20.70;11.20;;;;;;;2.63;81.75;97268.46;107718;1268;50798;-74
2022/01/14 10:17:12;;;;;;;19.00;11.60;;;;;;;2.56;81.67;97273.31;107669;1268;37306;-73
2022/01/14 10:19:45;;;;;;;14.10;8.40;;;;;;;2.41;81.91;97282.81;107663;1268;32844;-73
2022/01/14 10:22:28;;;;;;;15.90;8.50;;;;;;;2.55;82.60;97278.80;107767;1268;36780;-73
2022/01/14 10:25:01;;;;;;;20.40;13.30;;;;;;;2.59;82.08;97270.31;107748;1270;34367;-73
2022/01/14 10:27:39;;;;;;;18.00;9.90;;;;;;;2.32;81.86;97268.05;107655;1270;42973;-73
2022/01/14 10:30:20;;;;;;;17.60;10.30;;;;;;;2.25;82.52;97242.63;107770;1268;37075;-73
2022/01/14 10:32:59;;;;;;;17.70;10.10;;;;;;;2.35;82.78;97265.90;107674;1270;31132;-73
2022/01/14 10:35:39;;;;;;;18.10;10.10;;;;;;;2.41;82.71;97269.89;107701;1270;31815;-73
2022/01/14 10:38:12;;;;;;;15.30;9.10;;;;;;;2.31;82.83;97279.21;107611;1270;40055;-73
2022/01/14 10:40:49;;;;;;;14.30;8.60;;;;;;;2.32;82.99;97263.63;107682;1268;40599;-73
2022/01/14 10:43:22;;;;;;;11.90;7.00;;;;;;;2.40;83.14;97269.46;107605;1270;40323;-73
2022/01/14 10:45:54;;;;;;;14.30;9.00;;;;;;;2.34;82.96;97263.56;107877;1270;33187;-73
2022/01/14 10:48:32;;;;;;;13.10;6.00;;;;;;;2.26;82.86;97266.11;107689;1270;48355;-73
2022/01/14 10:51:04;;;;;;;14.10;8.30;;;;;;;2.19;83.26;97247.98;107639;1270;33345;-74
2022/01/14 10:53:37;;;;;;;12.00;6.70;;;;;;;2.21;83.31;97237.75;107693;1268;33592;-74
2022/01/14 10:56:10;;;;;;;11.30;6.90;;;;;;;2.20;83.48;97234.58;107667;1270;29681;-73
2022/01/14 10:58:44;;;;;;;13.20;8.80;;;;;;;2.25;83.51;97238.34;107725;1268;37148;-73
2022/01/14 11:01:19;;;;;;;12.50;7.40;;;;;;;2.29;83.53;97246.63;107769;1268;29438;-73
2022/01/14 11:03:53;;;;;;;12.80;7.20;;;;;;;2.29;83.68;97252.77;107746;1268;35082;-73
2022/01/14 11:06:25;;;;;;;10.40;5.10;;;;;;;2.30;83.70;97239.17;107795;1268;38408;-73
2022/01/14 11:09:00;;;;;;;10.70;6.10;;;;;;;2.28;83.69;97244.29;107673;1268;39216;-74
2022/01/14 11:11:33;;;;;;;17.40;7.40;;;;;;;2.31;83.92;97239.60;107693;1268;33217;-74
2022/01/14 11:14:05;;;;;;;18.00;8.60;;;;;;;2.33;83.84;97239.10;107696;1270;33710;-74
2022/01/14 11:16:38;;;;;;;11.50;7.00;;;;;;;2.35;83.82;97229.91;107644;1270;41920;-73
2022/01/14 11:19:09;;;;;;;12.00;6.00;;;;;;;2.36;84.00;97217.18;107667;1269;42562;-73
2022/01/14 11:24:34;;;;;;;9.30;5.00;;;;;;;2.48;84.10;97203.19;107769;1268;31982;-74
2022/01/14 11:27:09;;;;;;;12.20;6.10;;;;;;;2.52;84.10;97200.37;107713;1269;41090;-73
2022/01/14 11:29:44;;;;;;;12.70;6.20;;;;;;;2.54;84.02;97193.92;107648;1270;34387;-73
2022/01/14 11:32:16;;;;;;;12.00;6.40;;;;;;;2.60;84.09;97196.98;107661;1270;45379;-74
2022/01/14 11:34:50;;;;;;;9.70;4.50;;;;;;;2.65;84.13;97194.71;107712;1270;41636;-74
2022/01/14 11:37:36;;;;;;;9.30;5.40;;;;;;;2.67;84.02;97190.27;107721;1268;38072;-74
2022/01/14 11:40:12;;;;;;;9.90;5.70;;;;;;;2.67;84.08;97186.58;107755;1268;31417;-73
2022/01/14 11:42:46;;;;;;;10.30;5.60;;;;;;;2.67;84.09;97187.73;107794;1268;31924;-73
2022/01/14 11:45:19;;;;;;;14.00;6.70;;;;;;;2.71;84.06;97188.32;107723;1270;41138;-73
2022/01/14 11:48:01;;;;;;;12.10;5.70;;;;;;;2.75;84.34;97189.73;107702;1268;37266;-73
2022/01/14 11:50:51;;;;;;;8.10;4.70;;;;;;;2.80;84.36;97192.23;107652;1268;45401;-74
2022/01/14 11:53:41;;;;;;;10.60;5.70;;;;;;;2.88;84.39;97188.34;107685;1270;44278;-74
2022/01/14 11:56:43;;;;;;;8.80;4.70;;;;;;;2.92;84.41;97188.41;107683;1270;33799;-73
2022/01/14 11:59:42;;;;;;;9.10;4.90;;;;;;;2.96;84.32;97195.12;107721;1268;33704;-73